createdAt,value
2016-11-22T00:00:43.834Z,994.25
2016-11-22T00:01:43.588Z,994.21
2016-11-22T00:02:43.351Z,994.24
2016-11-22T00:03:43.480Z,994.26
2016-11-22T00:04:43.329Z,994.3
2016-11-22T00:05:43.477Z,994.3
2016-11-22T00:06:43.466Z,994.28
2016-11-22T00:07:43.589Z,994.32
2016-11-22T00:08:43.475Z,994.29
2016-11-22T00:09:43.709Z,994.3
2016-11-22T00:10:43.477Z,994.3
2016-11-22T00:11:43.472Z,994.22
2016-11-22T00:12:44.060Z,994.23
2016-11-22T00:13:43.688Z,994.25
2016-11-22T00:14:43.717Z,994.22
2016-11-22T00:15:43.585Z,994.18
2016-11-22T00:16:43.707Z,994.13
2016-11-22T00:17:43.582Z,994.09
2016-11-22T00:18:43.811Z,994.11
2016-11-22T00:19:43.578Z,994.07
2016-11-22T00:20:43.713Z,994.07
2016-11-22T00:21:43.716Z,994.1
2016-11-22T00:22:43.705Z,994.11
2016-11-22T00:23:43.692Z,994.11
2016-11-22T00:24:43.684Z,994.12
2016-11-22T00:25:43.600Z,994.06
2016-11-22T00:26:43.800Z,994.08
2016-11-22T00:27:43.820Z,994.08
2016-11-22T00:28:43.725Z,994.07
2016-11-22T00:29:44.067Z,994.05
2016-11-22T00:30:44.165Z,994.09
2016-11-22T00:31:43.815Z,994.09
2016-11-22T00:32:43.835Z,994.05
2016-11-22T00:33:43.847Z,994.06
2016-11-22T00:34:43.965Z,994.1
2016-11-22T00:35:43.943Z,994.15
2016-11-22T00:36:43.836Z,994.17
2016-11-22T00:37:43.847Z,994.24
2016-11-22T00:38:44.090Z,994.3
2016-11-22T00:39:44.205Z,994.3
2016-11-22T00:40:44.062Z,994.29
2016-11-22T00:41:43.973Z,994.31
2016-11-22T00:42:44.418Z,994.36
2016-11-22T00:43:44.089Z,994.39
2016-11-22T00:44:43.969Z,994.36
2016-11-22T00:45:44.080Z,994.46
2016-11-22T00:46:44.079Z,994.44
2016-11-22T00:47:43.975Z,994.43
2016-11-22T00:48:44.177Z,994.49
2016-11-22T00:49:44.195Z,994.53
2016-11-22T00:50:44.320Z,994.6
2016-11-22T00:51:44.317Z,994.67
2016-11-22T00:52:44.171Z,994.68
2016-11-22T00:53:44.209Z,994.68
2016-11-22T00:54:44.202Z,994.71
2016-11-22T00:55:44.311Z,994.74
2016-11-22T00:56:44.561Z,994.75
2016-11-22T00:57:44.312Z,994.78
2016-11-22T00:58:44.337Z,994.78
2016-11-22T00:59:44.323Z,994.8
2016-11-22T01:00:44.336Z,994.81
2016-11-22T01:01:44.533Z,994.85
2016-11-22T01:02:44.295Z,994.87
2016-11-22T01:03:44.419Z,994.89
2016-11-22T01:04:44.335Z,994.89
2016-11-22T01:05:44.427Z,994.85
2016-11-22T01:06:44.682Z,994.92
2016-11-22T01:07:44.429Z,994.91
2016-11-22T01:08:44.424Z,994.92
2016-11-22T01:09:44.349Z,994.97
2016-11-22T01:10:44.543Z,995.04
2016-11-22T01:11:44.553Z,995.05
2016-11-22T01:12:44.722Z,995.08
2016-11-22T01:13:44.461Z,995.1
2016-11-22T01:14:44.558Z,995.17
2016-11-22T01:15:44.551Z,995.2
2016-11-22T01:16:44.807Z,995.23
2016-11-22T01:17:44.468Z,995.23
2016-11-22T01:18:44.805Z,995.32
2016-11-22T01:19:44.908Z,995.34
2016-11-22T01:20:44.666Z,995.41
2016-11-22T01:21:44.821Z,995.42
2016-11-22T01:22:44.715Z,995.44
2016-11-22T01:23:44.803Z,995.49
2016-11-22T01:24:44.694Z,995.53
2016-11-22T01:25:44.942Z,995.56
2016-11-22T01:26:44.975Z,995.57
2016-11-22T01:27:44.956Z,995.55
2016-11-22T01:28:45.050Z,995.53
2016-11-22T01:29:44.966Z,995.53
2016-11-22T01:30:45.053Z,995.55
2016-11-22T01:31:44.922Z,995.55
2016-11-22T01:32:44.933Z,995.58
2016-11-22T01:33:44.940Z,995.64
2016-11-22T01:34:44.961Z,995.62
2016-11-22T01:35:44.951Z,995.63
2016-11-22T01:36:44.964Z,995.61
2016-11-22T01:37:45.181Z,995.65
2016-11-22T01:38:45.212Z,995.63
2016-11-22T01:39:45.201Z,995.62
2016-11-22T01:40:45.307Z,995.65
2016-11-22T01:41:45.346Z,995.74
2016-11-22T01:42:45.056Z,995.74
2016-11-22T01:43:45.052Z,995.8
2016-11-22T01:44:45.085Z,995.81
2016-11-22T01:45:45.087Z,995.83
2016-11-22T01:46:45.211Z,995.82
2016-11-22T01:47:45.289Z,995.8
2016-11-22T01:48:45.083Z,995.77
2016-11-22T01:49:45.310Z,995.78
2016-11-22T01:50:45.180Z,995.74
2016-11-22T01:51:45.225Z,995.79
2016-11-22T01:52:45.302Z,995.82
2016-11-22T01:53:45.312Z,995.78
2016-11-22T01:54:45.416Z,995.75
2016-11-22T01:55:45.413Z,995.77
2016-11-22T01:56:45.413Z,995.78
2016-11-22T01:57:45.214Z,995.76
2016-11-22T01:58:45.348Z,995.74
2016-11-22T01:59:45.452Z,995.73
2016-11-22T02:00:45.457Z,995.72
2016-11-22T02:01:45.538Z,995.71
2016-11-22T02:02:45.453Z,995.69
2016-11-22T02:03:45.664Z,995.67
2016-11-22T02:04:45.700Z,995.68
2016-11-22T02:05:45.543Z,995.69
2016-11-22T02:06:45.415Z,995.69
2016-11-22T02:07:45.807Z,995.69
2016-11-22T02:08:45.799Z,995.72
2016-11-22T02:09:45.891Z,995.73
2016-11-22T02:10:45.804Z,995.72
2016-11-22T02:11:45.794Z,995.67
2016-11-22T02:12:45.821Z,995.68
2016-11-22T02:13:45.709Z,995.73
2016-11-22T02:14:45.669Z,995.73
2016-11-22T02:15:45.817Z,995.79
2016-11-22T02:16:45.803Z,995.89
2016-11-22T02:17:45.816Z,995.91
2016-11-22T02:18:45.951Z,995.96
2016-11-22T02:19:46.273Z,995.97
2016-11-22T02:20:45.843Z,995.99
2016-11-22T02:21:45.799Z,995.98
2016-11-22T02:22:45.818Z,995.97
2016-11-22T02:23:45.824Z,995.92
2016-11-22T02:24:46.089Z,995.94
2016-11-22T02:25:46.050Z,995.94
2016-11-22T02:26:46.550Z,995.95
2016-11-22T02:27:46.072Z,995.92
2016-11-22T02:28:45.832Z,995.9
2016-11-22T02:29:45.947Z,995.94
2016-11-22T02:30:46.146Z,995.92
2016-11-22T02:31:46.081Z,995.95
2016-11-22T02:32:46.062Z,995.93
2016-11-22T02:33:46.393Z,995.93
2016-11-22T02:34:46.428Z,995.95
2016-11-22T02:35:46.270Z,995.95
2016-11-22T02:36:46.533Z,995.93
2016-11-22T02:37:46.435Z,995.87
2016-11-22T02:38:46.676Z,995.85
2016-11-22T02:39:46.541Z,995.86
2016-11-22T02:40:46.423Z,995.93
2016-11-22T02:41:46.432Z,995.93
2016-11-22T02:42:46.191Z,995.97
2016-11-22T02:43:46.783Z,995.97
2016-11-22T02:44:46.431Z,995.94
2016-11-22T02:45:46.396Z,995.95
2016-11-22T02:46:47.516Z,996
2016-11-22T02:47:46.553Z,996.02
2016-11-22T02:48:46.532Z,995.98
2016-11-22T02:49:46.803Z,995.98
2016-11-22T02:50:46.440Z,996
2016-11-22T02:51:46.674Z,996.03
2016-11-22T02:52:46.677Z,996.08
2016-11-22T02:53:46.317Z,996.11
2016-11-22T02:54:46.920Z,996.09
2016-11-22T02:55:46.432Z,996.11
2016-11-22T02:56:46.423Z,996.15
2016-11-22T02:57:46.796Z,996.26
2016-11-22T02:58:46.405Z,996.29
2016-11-22T02:59:46.561Z,996.35
2016-11-22T03:00:46.677Z,996.36
2016-11-22T03:01:46.803Z,996.33
2016-11-22T03:02:46.560Z,996.32
2016-11-22T03:03:46.396Z,996.35
2016-11-22T03:04:46.562Z,996.3
2016-11-22T03:05:46.921Z,996.32
2016-11-22T03:06:46.563Z,996.27
2016-11-22T03:07:46.915Z,996.2
2016-11-22T03:08:46.688Z,996.16
2016-11-22T03:09:46.656Z,996.19
2016-11-22T03:10:46.775Z,996.2
2016-11-22T03:11:46.553Z,996.2
2016-11-22T03:12:46.568Z,996.19
2016-11-22T03:13:46.913Z,996.26
2016-11-22T03:14:47.019Z,996.26
2016-11-22T03:15:47.048Z,996.27
2016-11-22T03:16:46.812Z,996.29
2016-11-22T03:17:46.686Z,996.25
2016-11-22T03:18:46.770Z,996.26
2016-11-22T03:19:46.793Z,996.24
2016-11-22T03:20:46.698Z,996.19
2016-11-22T03:21:46.935Z,996.2
2016-11-22T03:22:46.788Z,996.19
2016-11-22T03:23:46.806Z,996.16
2016-11-22T03:24:46.813Z,996.13
2016-11-22T03:25:46.934Z,996.17
2016-11-22T03:26:46.918Z,996.17
2016-11-22T03:27:46.814Z,996.09
2016-11-22T03:28:46.934Z,996.07
2016-11-22T03:29:47.057Z,996.05
2016-11-22T03:30:47.287Z,996.05
2016-11-22T03:31:47.029Z,996.08
2016-11-22T03:32:46.898Z,996.13
2016-11-22T03:33:46.919Z,996.1
2016-11-22T03:34:47.275Z,996.03
2016-11-22T03:35:47.057Z,996.08
2016-11-22T03:36:46.939Z,996.03
2016-11-22T03:37:47.183Z,996.06
2016-11-22T03:38:47.057Z,996.06
2016-11-22T03:39:47.270Z,996.07
2016-11-22T03:40:47.300Z,996.01
2016-11-22T03:41:47.176Z,995.99
2016-11-22T03:42:47.175Z,995.99
2016-11-22T03:43:47.061Z,995.98
2016-11-22T03:44:47.400Z,995.99
2016-11-22T03:45:47.519Z,995.98
2016-11-22T03:46:47.175Z,995.97
2016-11-22T03:47:47.506Z,996
2016-11-22T03:48:47.293Z,996.01
2016-11-22T03:49:47.422Z,996.01
2016-11-22T03:50:47.303Z,996.08
2016-11-22T03:51:47.426Z,996.14
2016-11-22T03:52:47.307Z,996.19
2016-11-22T03:53:47.428Z,996.15
2016-11-22T03:54:47.537Z,996.13
2016-11-22T03:55:47.427Z,996.13
2016-11-22T03:56:47.432Z,996.18
2016-11-22T03:57:47.407Z,996.18
2016-11-22T03:58:47.436Z,996.23
2016-11-22T03:59:47.912Z,996.3
2016-11-22T04:00:47.531Z,996.28
2016-11-22T04:01:47.658Z,996.28
2016-11-22T04:02:47.442Z,996.27
2016-11-22T04:03:47.538Z,996.3
2016-11-22T04:04:47.433Z,996.34
2016-11-22T04:05:47.514Z,996.4
2016-11-22T04:06:47.795Z,996.4
2016-11-22T04:07:47.527Z,996.41
2016-11-22T04:08:47.799Z,996.44
2016-11-22T04:09:47.524Z,996.47
2016-11-22T04:10:47.553Z,996.54
2016-11-22T04:11:47.536Z,996.54
2016-11-22T04:12:47.669Z,996.55
2016-11-22T04:13:47.660Z,996.55
2016-11-22T04:14:47.659Z,996.53
2016-11-22T04:15:47.663Z,996.5
2016-11-22T04:16:47.696Z,996.5
2016-11-22T04:17:47.647Z,996.51
2016-11-22T04:18:47.683Z,996.46
2016-11-22T04:19:47.691Z,996.54
2016-11-22T04:20:47.902Z,996.56
2016-11-22T04:21:47.771Z,996.62
2016-11-22T04:22:47.945Z,996.63
2016-11-22T04:23:47.907Z,996.66
2016-11-22T04:24:48.045Z,996.64
2016-11-22T04:25:47.917Z,996.66
2016-11-22T04:26:47.827Z,996.66
2016-11-22T04:27:48.016Z,996.72
2016-11-22T04:28:47.931Z,996.75
2016-11-22T04:29:48.016Z,996.76
2016-11-22T04:30:47.901Z,996.79
2016-11-22T04:31:48.005Z,996.72
2016-11-22T04:32:47.931Z,996.72
2016-11-22T04:33:47.917Z,996.73
2016-11-22T04:34:48.168Z,996.74
2016-11-22T04:35:48.044Z,996.75
2016-11-22T04:36:48.167Z,996.78
2016-11-22T04:37:48.138Z,996.78
2016-11-22T04:38:48.057Z,996.79
2016-11-22T04:39:48.137Z,996.79
2016-11-22T04:40:48.159Z,996.85
2016-11-22T04:41:48.282Z,996.86
2016-11-22T04:42:48.268Z,996.84
2016-11-22T04:43:48.390Z,996.87
2016-11-22T04:44:48.265Z,996.95
2016-11-22T04:45:48.277Z,996.98
2016-11-22T04:46:48.167Z,997.03
2016-11-22T04:47:48.180Z,997
2016-11-22T04:48:48.299Z,996.94
2016-11-22T04:49:48.411Z,996.96
2016-11-22T04:50:48.296Z,996.96
2016-11-22T04:51:48.431Z,996.97
2016-11-22T04:52:48.189Z,996.97
2016-11-22T04:53:48.296Z,996.95
2016-11-22T04:54:48.573Z,996.94
2016-11-22T04:55:48.557Z,996.94
2016-11-22T04:56:48.400Z,996.94
2016-11-22T04:57:48.635Z,996.91
2016-11-22T04:58:48.420Z,996.95
2016-11-22T04:59:48.918Z,996.93
2016-11-22T05:00:48.309Z,996.89
2016-11-22T05:01:48.546Z,996.86
2016-11-22T05:02:48.400Z,996.83
2016-11-22T05:03:48.400Z,996.83
2016-11-22T05:04:48.501Z,996.87
2016-11-22T05:05:48.302Z,996.89
2016-11-22T05:06:48.425Z,996.91
2016-11-22T05:07:48.431Z,996.95
2016-11-22T05:08:48.438Z,996.9
2016-11-22T05:09:48.507Z,996.92
2016-11-22T05:10:48.431Z,996.9
2016-11-22T05:11:48.429Z,996.92
2016-11-22T05:12:48.682Z,996.89
2016-11-22T05:13:48.937Z,996.85
2016-11-22T05:14:48.915Z,996.89
2016-11-22T05:15:48.919Z,996.93
2016-11-22T05:16:48.893Z,996.93
2016-11-22T05:17:48.927Z,996.91
2016-11-22T05:18:48.878Z,996.87
2016-11-22T05:19:49.053Z,996.91
2016-11-22T05:20:49.152Z,996.94
2016-11-22T05:21:48.925Z,996.93
2016-11-22T05:22:48.775Z,996.95
2016-11-22T05:23:49.051Z,996.99
2016-11-22T05:24:48.921Z,996.95
2016-11-22T05:25:48.924Z,996.99
2016-11-22T05:26:49.053Z,996.98
2016-11-22T05:27:48.903Z,997.05
2016-11-22T05:28:48.901Z,997.06
2016-11-22T05:29:49.027Z,997.08
2016-11-22T05:30:49.046Z,997.04
2016-11-22T05:31:49.027Z,997.05
2016-11-22T05:32:49.177Z,997.09
2016-11-22T05:33:49.162Z,996.99
2016-11-22T05:34:49.196Z,996.98
2016-11-22T05:35:49.178Z,997.01
2016-11-22T05:36:49.530Z,997.07
2016-11-22T05:37:49.015Z,997.11
2016-11-22T05:38:49.298Z,997.15
2016-11-22T05:39:49.506Z,997.12
2016-11-22T05:40:49.535Z,997.12
2016-11-22T05:41:49.892Z,997.08
2016-11-22T05:42:49.534Z,997.09
2016-11-22T05:43:49.186Z,997.11
2016-11-22T05:44:49.876Z,997.09
2016-11-22T05:45:49.908Z,997.12
2016-11-22T05:46:49.548Z,997.12
2016-11-22T05:47:49.656Z,997.13
2016-11-22T05:48:49.566Z,997.17
2016-11-22T05:49:49.909Z,997.18
2016-11-22T05:50:49.425Z,997.21
2016-11-22T05:51:49.904Z,997.25
2016-11-22T05:52:49.859Z,997.27
2016-11-22T05:53:49.792Z,997.27
2016-11-22T05:54:50.743Z,997.24
2016-11-22T05:55:50.275Z,997.24
2016-11-22T05:56:50.041Z,997.18
2016-11-22T05:57:49.992Z,997.19
2016-11-22T05:58:49.653Z,997.22
2016-11-22T05:59:49.885Z,997.22
2016-11-22T06:00:49.557Z,997.29
2016-11-22T06:01:49.549Z,997.25
2016-11-22T06:02:49.672Z,997.29
2016-11-22T06:03:50.273Z,997.28
2016-11-22T06:04:49.784Z,997.23
2016-11-22T06:05:50.021Z,997.23
2016-11-22T06:06:50.032Z,997.21
2016-11-22T06:07:50.150Z,997.19
2016-11-22T06:08:49.797Z,997.25
2016-11-22T06:09:50.003Z,997.27
2016-11-22T06:10:49.922Z,997.3
2016-11-22T06:11:50.390Z,997.31
2016-11-22T06:12:50.158Z,997.29
2016-11-22T06:13:50.038Z,997.22
2016-11-22T06:14:49.804Z,997.26
2016-11-22T06:15:50.636Z,997.26
2016-11-22T06:16:51.003Z,997.27
2016-11-22T06:17:49.895Z,997.31
2016-11-22T06:18:49.916Z,997.35
2016-11-22T06:19:50.035Z,997.45
2016-11-22T06:20:50.025Z,997.42
2016-11-22T06:21:49.892Z,997.45
2016-11-22T06:22:49.922Z,997.53
2016-11-22T06:23:49.914Z,997.53
2016-11-22T06:24:50.166Z,997.5
2016-11-22T06:25:50.021Z,997.52
2016-11-22T06:26:50.031Z,997.51
2016-11-22T06:27:49.924Z,997.55
2016-11-22T06:28:50.163Z,997.63
2016-11-22T06:29:50.148Z,997.57
2016-11-22T06:30:50.039Z,997.68
2016-11-22T06:31:50.045Z,997.72
2016-11-22T06:32:50.373Z,997.75
2016-11-22T06:33:50.405Z,997.69
2016-11-22T06:34:50.273Z,997.68
2016-11-22T06:35:50.017Z,997.7
2016-11-22T06:36:50.048Z,997.78
2016-11-22T06:37:50.173Z,997.83
2016-11-22T06:38:50.398Z,997.86
2016-11-22T06:39:50.285Z,997.9
2016-11-22T06:40:50.037Z,997.82
2016-11-22T06:41:50.163Z,997.76
2016-11-22T06:42:50.534Z,997.77
2016-11-22T06:43:50.160Z,997.78
2016-11-22T06:44:50.643Z,997.83
2016-11-22T06:45:50.401Z,998
2016-11-22T06:46:50.285Z,998.02
2016-11-22T06:47:50.270Z,997.97
2016-11-22T06:48:50.270Z,997.92
2016-11-22T06:49:50.637Z,997.91
2016-11-22T06:50:50.522Z,997.91
2016-11-22T06:51:50.410Z,997.95
2016-11-22T06:52:50.421Z,997.93
2016-11-22T06:53:50.776Z,997.89
2016-11-22T06:54:50.532Z,997.87
2016-11-22T06:55:50.777Z,997.84
2016-11-22T06:56:50.509Z,997.92
2016-11-22T06:57:50.413Z,997.95
2016-11-22T06:58:50.421Z,998.06
2016-11-22T06:59:50.665Z,998.15
2016-11-22T07:00:50.286Z,998.13
2016-11-22T07:01:50.509Z,998.19
2016-11-22T07:02:50.651Z,998.24
2016-11-22T07:03:50.652Z,998.26
2016-11-22T07:04:50.643Z,998.27
2016-11-22T07:05:50.661Z,998.28
2016-11-22T07:06:50.757Z,998.25
2016-11-22T07:07:50.666Z,998.26
2016-11-22T07:08:50.638Z,998.23
2016-11-22T07:09:50.761Z,998.21
2016-11-22T07:10:50.644Z,998.21
2016-11-22T07:11:50.767Z,998.2
2016-11-22T07:12:50.751Z,998.18
2016-11-22T07:13:50.786Z,998.24
2016-11-22T07:14:50.785Z,998.21
2016-11-22T07:15:50.893Z,998.22
2016-11-22T07:16:50.764Z,998.31
2016-11-22T07:17:51.149Z,998.37
2016-11-22T07:18:50.873Z,998.38
2016-11-22T07:19:51.267Z,998.41
2016-11-22T07:20:51.387Z,998.44
2016-11-22T07:21:50.905Z,998.46
2016-11-22T07:22:50.911Z,998.47
2016-11-22T07:23:50.792Z,998.53
2016-11-22T07:24:51.154Z,998.52
2016-11-22T07:25:51.632Z,998.52
2016-11-22T07:26:51.725Z,998.56
2016-11-22T07:27:51.152Z,998.51
2016-11-22T07:28:51.502Z,998.57
2016-11-22T07:29:51.146Z,998.54
2016-11-22T07:30:51.508Z,998.46
2016-11-22T07:31:51.628Z,998.46
2016-11-22T07:32:51.516Z,998.46
2016-11-22T07:33:51.384Z,998.53
2016-11-22T07:34:51.880Z,998.53
2016-11-22T07:35:51.504Z,998.56
2016-11-22T07:36:51.517Z,998.57
2016-11-22T07:37:51.280Z,998.56
2016-11-22T07:38:51.140Z,998.52
2016-11-22T07:39:51.517Z,998.49
2016-11-22T07:40:51.504Z,998.51
2016-11-22T07:41:51.485Z,998.51
2016-11-22T07:42:51.761Z,998.53
2016-11-22T07:43:51.620Z,998.53
2016-11-22T07:44:51.515Z,998.58
2016-11-22T07:45:51.636Z,998.62
2016-11-22T07:46:51.514Z,998.57
2016-11-22T07:47:52.471Z,998.57
2016-11-22T07:48:51.743Z,998.56
2016-11-22T07:49:51.756Z,998.56
2016-11-22T07:50:52.009Z,998.52
2016-11-22T07:51:51.621Z,998.54
2016-11-22T07:52:51.770Z,998.55
2016-11-22T07:53:51.515Z,998.55
2016-11-22T07:54:51.627Z,998.55
2016-11-22T07:55:51.639Z,998.56
2016-11-22T07:56:51.649Z,998.59
2016-11-22T07:57:51.609Z,998.6
2016-11-22T07:58:51.747Z,998.57
2016-11-22T07:59:51.931Z,998.63
2016-11-22T08:00:51.649Z,998.7
2016-11-22T08:01:51.769Z,998.68
2016-11-22T08:02:51.645Z,998.66
2016-11-22T08:03:51.750Z,998.63
2016-11-22T08:04:51.762Z,998.63
2016-11-22T08:05:51.979Z,998.67
2016-11-22T08:06:51.781Z,998.66
2016-11-22T08:07:51.772Z,998.64
2016-11-22T08:08:51.986Z,998.66
2016-11-22T08:09:51.756Z,998.63
2016-11-22T08:10:51.860Z,998.63
2016-11-22T08:11:51.663Z,998.68
2016-11-22T08:12:52.117Z,998.7
2016-11-22T08:13:51.660Z,998.72
2016-11-22T08:14:51.895Z,998.78
2016-11-22T08:15:51.777Z,998.83
2016-11-22T08:16:51.887Z,998.86
2016-11-22T08:17:51.659Z,998.93
2016-11-22T08:18:51.867Z,998.95
2016-11-22T08:19:51.870Z,998.94
2016-11-22T08:20:51.981Z,998.97
2016-11-22T08:21:51.907Z,999
2016-11-22T08:22:51.994Z,999.09
2016-11-22T08:23:51.892Z,999.09
2016-11-22T08:24:52.017Z,999.14
2016-11-22T08:25:51.868Z,999.16
2016-11-22T08:26:52.107Z,999.17
2016-11-22T08:27:52.348Z,999.17
2016-11-22T08:28:52.509Z,999.18
2016-11-22T08:29:52.150Z,999.15
2016-11-22T08:30:52.100Z,999.1
2016-11-22T08:31:52.254Z,999.14
2016-11-22T08:32:52.036Z,999.14
2016-11-22T08:33:52.384Z,999.14
2016-11-22T08:34:52.386Z,999.17
2016-11-22T08:35:52.262Z,999.18
2016-11-22T08:36:52.271Z,999.14
2016-11-22T08:37:52.268Z,999.17
2016-11-22T08:38:52.098Z,999.18
2016-11-22T08:39:52.246Z,999.16
2016-11-22T08:40:52.380Z,999.11
2016-11-22T08:41:52.278Z,999.15
2016-11-22T08:42:52.631Z,999.14
2016-11-22T08:43:52.390Z,999.12
2016-11-22T08:44:52.512Z,999.17
2016-11-22T08:45:52.358Z,999.24
2016-11-22T08:46:52.394Z,999.2
2016-11-22T08:47:52.352Z,999.23
2016-11-22T08:48:52.347Z,999.3
2016-11-22T08:49:52.607Z,999.27
2016-11-22T08:50:52.530Z,999.25
2016-11-22T08:51:52.404Z,999.27
2016-11-22T08:52:53.003Z,999.28
2016-11-22T08:53:52.628Z,999.32
2016-11-22T08:54:52.591Z,999.4
2016-11-22T08:55:52.594Z,999.49
2016-11-22T08:56:52.637Z,999.49
2016-11-22T08:57:52.628Z,999.51
2016-11-22T08:58:52.520Z,999.49
2016-11-22T08:59:52.387Z,999.53
2016-11-22T09:00:52.392Z,999.54
2016-11-22T09:01:52.391Z,999.57
2016-11-22T09:02:52.972Z,999.59
2016-11-22T09:03:52.628Z,999.62
2016-11-22T09:04:52.749Z,999.6
2016-11-22T09:05:52.641Z,999.61
2016-11-22T09:06:52.634Z,999.62
2016-11-22T09:07:52.648Z,999.66
2016-11-22T09:08:53.088Z,999.65
2016-11-22T09:09:53.366Z,999.68
2016-11-22T09:10:52.879Z,999.76
2016-11-22T09:11:53.733Z,999.76
2016-11-22T09:12:52.767Z,999.77
2016-11-22T09:13:52.894Z,999.79
2016-11-22T09:14:53.114Z,999.83
2016-11-22T09:15:53.362Z,999.86
2016-11-22T09:16:53.459Z,999.87
2016-11-22T09:17:53.120Z,999.89
2016-11-22T09:18:52.855Z,999.96
2016-11-22T09:19:53.961Z,999.98
2016-11-22T09:20:53.611Z,1000.02
2016-11-22T09:21:53.264Z,1000.03
2016-11-22T09:22:53.359Z,1000.08
2016-11-22T09:23:53.375Z,1000.07
2016-11-22T09:24:53.486Z,1000.07
2016-11-22T09:25:53.611Z,1000.04
2016-11-22T09:26:54.461Z,1000.05
2016-11-22T09:27:54.434Z,1000.18
2016-11-22T09:28:53.246Z,1000.19
2016-11-22T09:29:53.238Z,1000.21
2016-11-22T09:30:53.258Z,1000.23
2016-11-22T09:31:53.246Z,1000.23
2016-11-22T09:32:53.374Z,1000.34
2016-11-22T09:33:53.596Z,1000.34
2016-11-22T09:34:53.104Z,1000.35
2016-11-22T09:35:53.256Z,1000.38
2016-11-22T09:36:53.133Z,1000.34
2016-11-22T09:37:53.624Z,1000.37
2016-11-22T09:38:53.623Z,1000.36
2016-11-22T09:39:53.867Z,1000.36
2016-11-22T09:40:53.369Z,1000.41
2016-11-22T09:41:53.625Z,1000.45
2016-11-22T09:42:53.498Z,1000.46
2016-11-22T09:43:53.490Z,1000.5
2016-11-22T09:44:53.491Z,1000.56
2016-11-22T09:45:53.349Z,1000.54
2016-11-22T09:46:53.386Z,1000.59
2016-11-22T09:47:53.384Z,1000.52
2016-11-22T09:48:53.473Z,1000.49
2016-11-22T09:49:53.516Z,1000.48
2016-11-22T09:50:53.584Z,1000.51
2016-11-22T09:51:53.622Z,1000.51
2016-11-22T09:52:53.753Z,1000.49
2016-11-22T09:53:53.521Z,1000.49
2016-11-22T09:54:53.623Z,1000.46
2016-11-22T09:55:53.739Z,1000.55
2016-11-22T09:56:53.872Z,1000.54
2016-11-22T09:57:53.726Z,1000.53
2016-11-22T09:58:54.111Z,1000.5
2016-11-22T09:59:53.748Z,1000.51
2016-11-22T10:00:53.628Z,1000.61
2016-11-22T10:01:53.584Z,1000.67
2016-11-22T10:02:53.513Z,1000.72
2016-11-22T10:03:53.509Z,1000.75
2016-11-22T10:04:53.727Z,1000.79
2016-11-22T10:05:53.755Z,1000.86
2016-11-22T10:06:54.097Z,1000.84
2016-11-22T10:07:53.762Z,1000.85
2016-11-22T10:08:53.748Z,1000.83
2016-11-22T10:09:54.072Z,1000.85
2016-11-22T10:10:53.997Z,1000.89
2016-11-22T10:11:54.227Z,1000.85
2016-11-22T10:12:54.112Z,1000.79
2016-11-22T10:13:53.852Z,1000.84
2016-11-22T10:14:53.840Z,1000.84
2016-11-22T10:15:54.117Z,1000.81
2016-11-22T10:16:54.218Z,1000.78
2016-11-22T10:17:53.971Z,1000.76
2016-11-22T10:18:54.122Z,1000.77
2016-11-22T10:19:53.997Z,1000.82
2016-11-22T10:20:54.004Z,1000.86
2016-11-22T10:21:53.980Z,1000.93
2016-11-22T10:22:53.981Z,1000.95
2016-11-22T10:23:54.366Z,1001
2016-11-22T10:24:54.248Z,1000.99
2016-11-22T10:25:54.247Z,1001.02
2016-11-22T10:26:54.231Z,1001.04
2016-11-22T10:27:54.467Z,1001.08
2016-11-22T10:28:54.093Z,1001.11
2016-11-22T10:29:54.446Z,1001.11
2016-11-22T10:30:54.454Z,1001.13
2016-11-22T10:31:54.370Z,1001.14
2016-11-22T10:32:54.353Z,1001.12
2016-11-22T10:33:54.238Z,1001.14
2016-11-22T10:34:54.357Z,1001.06
2016-11-22T10:35:54.220Z,1001.14
2016-11-22T10:36:54.279Z,1001.18
2016-11-22T10:37:54.373Z,1001.18
2016-11-22T10:38:54.331Z,1001.14
2016-11-22T10:39:54.476Z,1001.13
2016-11-22T10:40:54.353Z,1001.12
2016-11-22T10:41:54.476Z,1001.12
2016-11-22T10:42:54.623Z,1001.13
2016-11-22T10:43:54.381Z,1001.13
2016-11-22T10:44:54.617Z,1001.13
2016-11-22T10:45:54.615Z,1001.11
2016-11-22T10:46:54.589Z,1001.09
2016-11-22T10:47:54.721Z,1001.12
2016-11-22T10:48:54.499Z,1001.12
2016-11-22T10:49:54.501Z,1001.1
2016-11-22T10:50:54.493Z,1001.12
2016-11-22T10:51:54.608Z,1001.1
2016-11-22T10:52:54.581Z,1001.09
2016-11-22T10:53:54.832Z,1001.15
2016-11-22T10:54:54.718Z,1001.21
2016-11-22T10:55:54.721Z,1001.23
2016-11-22T10:56:54.633Z,1001.26
2016-11-22T10:57:54.624Z,1001.33
2016-11-22T10:58:54.625Z,1001.35
2016-11-22T10:59:54.851Z,1001.35
2016-11-22T11:00:54.866Z,1001.35
2016-11-22T11:01:54.751Z,1001.31
2016-11-22T11:02:54.725Z,1001.3
2016-11-22T11:03:54.862Z,1001.3
2016-11-22T11:04:54.976Z,1001.26
2016-11-22T11:05:54.878Z,1001.26
2016-11-22T11:06:54.837Z,1001.24
2016-11-22T11:07:54.952Z,1001.27
2016-11-22T11:08:54.885Z,1001.25
2016-11-22T11:09:55.087Z,1001.27
2016-11-22T11:10:54.964Z,1001.33
2016-11-22T11:11:54.954Z,1001.38
2016-11-22T11:12:55.123Z,1001.46
2016-11-22T11:13:54.953Z,1001.49
2016-11-22T11:14:54.958Z,1001.48
2016-11-22T11:15:55.199Z,1001.49
2016-11-22T11:16:54.994Z,1001.51
2016-11-22T11:17:55.115Z,1001.5
2016-11-22T11:18:55.017Z,1001.5
2016-11-22T11:19:55.090Z,1001.5
2016-11-22T11:20:55.320Z,1001.43
2016-11-22T11:21:55.358Z,1001.41
2016-11-22T11:22:55.352Z,1001.46
2016-11-22T11:23:55.357Z,1001.41
2016-11-22T11:24:55.242Z,1001.41
2016-11-22T11:25:55.330Z,1001.41
2016-11-22T11:26:55.320Z,1001.44
2016-11-22T11:27:55.346Z,1001.49
2016-11-22T11:28:55.446Z,1001.47
2016-11-22T11:29:55.507Z,1001.52
2016-11-22T11:30:55.446Z,1001.51
2016-11-22T11:31:55.350Z,1001.56
2016-11-22T11:32:55.333Z,1001.58
2016-11-22T11:33:55.359Z,1001.64
2016-11-22T11:34:55.582Z,1001.67
2016-11-22T11:35:55.724Z,1001.68
2016-11-22T11:36:55.689Z,1001.69
2016-11-22T11:37:55.455Z,1001.64
2016-11-22T11:38:55.600Z,1001.65
2016-11-22T11:39:55.690Z,1001.64
2016-11-22T11:40:55.705Z,1001.62
2016-11-22T11:41:55.731Z,1001.62
2016-11-22T11:42:55.494Z,1001.63
2016-11-22T11:43:55.686Z,1001.67
2016-11-22T11:44:55.828Z,1001.66
2016-11-22T11:45:55.822Z,1001.66
2016-11-22T11:46:55.813Z,1001.67
2016-11-22T11:47:56.075Z,1001.72
2016-11-22T11:48:56.126Z,1001.73
2016-11-22T11:49:56.050Z,1001.78
2016-11-22T11:50:55.744Z,1001.73
2016-11-22T11:51:55.854Z,1001.75
2016-11-22T11:52:55.983Z,1001.81
2016-11-22T11:53:55.753Z,1001.77
2016-11-22T11:54:55.937Z,1001.78
2016-11-22T11:55:55.965Z,1001.79
2016-11-22T11:56:56.449Z,1001.73
2016-11-22T11:57:56.462Z,1001.74
2016-11-22T11:58:56.075Z,1001.69
2016-11-22T11:59:55.975Z,1001.63
2016-11-22T12:00:56.076Z,1001.64
2016-11-22T12:01:56.100Z,1001.7
2016-11-22T12:02:55.984Z,1001.72
2016-11-22T12:03:56.338Z,1001.75
2016-11-22T12:04:55.980Z,1001.74
2016-11-22T12:05:56.188Z,1001.78
2016-11-22T12:06:56.223Z,1001.76
2016-11-22T12:07:56.348Z,1001.71
2016-11-22T12:08:56.439Z,1001.66
2016-11-22T12:09:56.417Z,1001.66
2016-11-22T12:10:56.354Z,1001.62
2016-11-22T12:11:56.319Z,1001.63
2016-11-22T12:12:56.473Z,1001.65
2016-11-22T12:13:56.328Z,1001.71
2016-11-22T12:14:56.348Z,1001.7
2016-11-22T12:15:56.679Z,1001.72
2016-11-22T12:16:56.468Z,1001.75
2016-11-22T12:17:56.463Z,1001.75
2016-11-22T12:18:56.480Z,1001.79
2016-11-22T12:19:56.597Z,1001.83
2016-11-22T12:20:56.479Z,1001.9
2016-11-22T12:21:56.600Z,1001.83
2016-11-22T12:22:56.826Z,1001.82
2016-11-22T12:23:56.695Z,1001.79
2016-11-22T12:24:56.587Z,1001.81
2016-11-22T12:25:56.719Z,1001.8